Time;durP1;ratioP1;P1;durP2;ratioP2;P2;SDS_P1;SDS_P2;PMS_P1;PMS_P2;Temp;Humidity;BMP_temperature;BMP_pressure;BME280_temperature;BME280_humidity;BME280_pressure;Samples;Min_cycle;Max_cycle;Signal;HPM_P1;HPM_P2
2022/05/30 00:00:36;;;;;;;7.88;2.47;;;11.70;36.30;;;;;;5032272;28;20387;-75
2022/05/30 00:03:02;;;;;;;15.23;3.00;;;11.70;36.40;;;;;;5030691;28;20922;-75
2022/05/30 00:05:30;;;;;;;8.90;2.20;;;11.70;36.50;;;;;;5021761;28;20693;-75
2022/05/30 00:07:56;;;;;;;11.15;2.55;;;11.70;37.40;;;;;;5023772;28;20891;-75
2022/05/30 00:10:22;;;;;;;8.43;2.45;;;11.60;37.60;;;;;;5013802;28;20393;-75
2022/05/30 00:12:47;;;;;;;6.88;2.35;;;11.60;37.60;;;;;;5019215;28;20413;-75
2022/05/30 00:15:16;;;;;;;12.50;2.60;;;11.70;36.30;;;;;;5019414;28;20385;-76
2022/05/30 00:17:42;;;;;;;11.70;2.42;;;11.70;36.30;;;;;;5012748;28;20882;-76
2022/05/30 00:20:08;;;;;;;11.60;2.77;;;11.60;36.30;;;;;;5015573;28;20402;-76
2022/05/30 00:22:34;;;;;;;6.10;2.30;;;11.60;36.40;;;;;;5018702;28;20475;-76
2022/05/30 00:25:00;;;;;;;7.47;2.50;;;11.70;36.50;;;;;;5012422;28;21024;-76
2022/05/30 00:27:25;;;;;;;13.03;2.80;;;11.60;36.00;;;;;;5015897;28;20535;-76
2022/05/30 00:29:51;;;;;;;6.60;2.30;;;11.70;35.90;;;;;;5024864;28;20774;-76
2022/05/30 00:32:16;;;;;;;8.37;3.20;;;11.70;36.30;;;;;;5021239;28;20785;-76
2022/05/30 00:34:42;;;;;;;11.70;2.40;;;11.60;37.70;;;;;;5012330;28;20451;-76
2022/05/30 00:37:08;;;;;;;11.03;2.30;;;11.60;37.30;;;;;;5012474;28;20389;-76
2022/05/30 00:39:33;;;;;;;7.63;2.43;;;11.70;36.80;;;;;;5018321;28;20873;-75
2022/05/30 00:42:16;;;;;;;10.83;2.53;;;11.70;37.70;;;;;;5021748;28;20388;-76
2022/05/30 00:44:42;;;;;;;9.13;2.60;;;11.70;37.50;;;;;;5015936;28;20424;-76
2022/05/30 00:47:08;;;;;;;10.48;2.65;;;11.70;37.90;;;;;;5016329;28;20480;-75
2022/05/30 00:49:35;;;;;;;8.60;2.80;;;11.70;36.60;;;;;;5018369;28;20457;-75
2022/05/30 00:52:05;;;;;;;11.32;2.70;;;11.70;37.40;;;;;;5022242;28;20428;-76
2022/05/30 00:54:40;;;;;;;11.13;2.50;;;11.70;37.50;;;;;;5016791;28;20494;-76
2022/05/30 00:57:20;;;;;;;8.90;2.50;;;11.70;38.30;;;;;;5030678;28;20937;-75
2022/05/30 01:00:08;;;;;;;10.77;2.87;;;11.70;38.20;;;;;;5019819;28;20385;-75
2022/05/30 01:02:37;;;;;;;11.35;2.75;;;11.50;39.40;;;;;;5011158;28;20397;-76
2022/05/30 01:07:49;;;;;;;5.93;2.50;;;11.70;37.70;;;;;;5012830;28;20467;-75
2022/05/30 01:10:20;;;;;;;10.43;3.03;;;11.80;36.00;;;;;;5025239;28;20762;-75
2022/05/30 01:12:54;;;;;;;7.93;2.40;;;11.80;36.60;;;;;;5025210;28;20597;-75
2022/05/30 01:15:28;;;;;;;8.85;2.50;;;11.70;37.70;;;;;;5008863;28;20403;-76
2022/05/30 01:18:10;;;;;;;9.57;2.67;;;11.70;37.40;;;;;;5011007;28;20770;-75
2022/05/30 01:21:15;;;;;;;8.68;2.10;;;11.60;37.90;;;;;;5010946;28;20389;-75
2022/05/30 01:23:53;;;;;;;9.18;2.88;;;11.50;38.70;;;;;;5011040;28;20389;-76
2022/05/30 01:26:29;;;;;;;9.70;2.70;;;11.40;40.60;;;;;;5010781;28;20389;-74
2022/05/30 01:29:04;;;;;;;10.50;3.10;;;11.50;38.60;;;;;;5011332;28;20492;-75
2022/05/30 01:31:30;;;;;;;14.85;3.20;;;11.50;39.10;;;;;;5011559;28;20412;-75
2022/05/30 01:33:56;;;;;;;9.73;2.60;;;11.60;37.30;;;;;;5010580;28;20384;-77
2022/05/30 01:36:24;;;;;;;9.27;3.10;;;11.60;37.70;;;;;;5011269;28;20400;-75
2022/05/30 01:38:50;;;;;;;14.13;2.78;;;11.60;36.90;;;;;;5011127;28;20383;-75
2022/05/30 01:41:15;;;;;;;8.30;2.73;;;11.60;37.10;;;;;;5011095;28;20483;-75
2022/05/30 01:43:41;;;;;;;9.13;2.27;;;11.50;38.60;;;;;;5011161;28;20397;-75
2022/05/30 01:46:10;;;;;;;16.63;3.80;;;11.50;38.30;;;;;;5040949;23;20429;-82
2022/05/30 02:02:35;;;;;;;10.85;3.13;;;11.30;42.00;;;;;;5053559;28;20398;-82
2022/05/30 02:05:01;;;;;;;10.05;2.42;;;11.20;42.80;;;;;;5051824;28;20395;-83
2022/05/30 02:07:30;;;;;;;7.43;2.90;;;11.40;40.90;;;;;;5052831;28;20386;-83
2022/05/30 02:09:56;;;;;;;13.00;3.23;;;11.60;39.40;;;;;;5053350;28;20402;-85
2022/05/30 02:12:21;;;;;;;14.15;3.15;;;11.80;38.60;;;;;;5051494;28;20411;-85
2022/05/30 02:14:47;;;;;;;15.23;3.47;;;11.70;39.60;;;;;;5052281;28;20399;-84
2022/05/30 02:17:13;;;;;;;10.90;3.20;;;11.40;41.80;;;;;;5051678;28;20419;-84
2022/05/30 02:19:44;;;;;;;10.13;3.13;;;11.20;42.70;;;;;;5054186;28;20375;-82
2022/05/30 02:22:13;;;;;;;8.15;3.25;;;11.30;44.00;;;;;;5053111;28;20411;-86
2022/05/30 02:24:39;;;;;;;11.27;3.17;;;11.20;44.50;;;;;;5053973;28;20391;-86
2022/05/30 02:27:06;;;;;;;9.73;2.72;;;11.50;41.30;;;;;;5049162;28;20410;-83
2022/05/30 02:29:32;;;;;;;10.35;3.15;;;11.70;39.80;;;;;;5044319;28;20387;-83
2022/05/30 02:31:58;;;;;;;16.00;2.78;;;11.70;39.60;;;;;;5044230;28;20438;-83
2022/05/30 02:37:08;;;;;;;12.13;3.40;;;11.70;39.80;;;;;;5035007;28;20394;-85
2022/05/30 02:39:34;;;;;;;12.43;3.10;;;11.60;40.90;;;;;;5039950;28;20390;-83
2022/05/30 02:42:00;;;;;;;12.82;3.30;;;11.60;39.70;;;;;;5038407;28;20399;-83
2022/05/30 02:44:26;;;;;;;10.65;3.03;;;11.60;40.70;;;;;;5039811;28;20478;-83
2022/05/30 02:46:57;;;;;;;12.02;2.80;;;11.50;41.20;;;;;;5040116;28;20806;-83
2022/05/30 02:49:26;;;;;;;12.50;3.30;;;11.50;40.50;;;;;;5038792;28;20478;-83
2022/05/30 02:51:52;;;;;;;8.38;2.90;;;11.50;40.60;;;;;;5037456;28;20972;-82
2022/05/30 02:54:18;;;;;;;13.43;3.53;;;11.50;40.40;;;;;;5039462;28;20387;-83
2022/05/30 02:56:49;;;;;;;12.75;3.17;;;11.40;41.20;;;;;;5041733;28;20441;-83
2022/05/30 02:59:15;;;;;;;11.38;2.92;;;11.40;38.60;;;;;;5042071;28;20383;-83
2022/05/30 03:01:41;;;;;;;12.15;3.72;;;11.30;39.20;;;;;;5050806;28;20415;-83
2022/05/30 03:04:06;;;;;;;15.35;3.03;;;11.20;42.40;;;;;;5054294;28;20884;-85
2022/05/30 03:06:33;;;;;;;13.50;3.53;;;11.10;43.10;;;;;;5054760;28;20373;-84
2022/05/30 03:08:59;;;;;;;9.10;3.55;;;11.10;43.80;;;;;;5058174;28;20380;-85
2022/05/30 03:11:25;;;;;;;14.52;3.40;;;11.10;43.10;;;;;;5058498;28;20410;-86
2022/05/30 03:13:51;;;;;;;11.20;3.13;;;11.30;41.40;;;;;;5058071;28;20410;-83
2022/05/30 03:16:17;;;;;;;13.27;3.58;;;11.40;41.20;;;;;;5056905;28;20390;-85
2022/05/30 03:18:43;;;;;;;11.70;3.10;;;11.30;41.60;;;;;;5056752;28;20466;-83
2022/05/30 03:21:10;;;;;;;9.48;2.92;;;11.30;40.90;;;;;;5056639;28;20383;-83
2022/05/30 03:23:36;;;;;;;6.50;2.40;;;11.20;38.70;;;;;;5054593;28;20478;-82
2022/05/30 03:26:02;;;;;;;8.73;2.75;;;11.20;38.70;;;;;;5054494;28;20422;-83
2022/05/30 03:28:28;;;;;;;10.90;2.83;;;11.10;39.20;;;;;;5054774;28;20421;-82
2022/05/30 03:30:53;;;;;;;11.80;2.33;;;11.10;39.00;;;;;;5051345;28;20418;-84
2022/05/30 03:33:19;;;;;;;9.47;2.90;;;11.00;39.60;;;;;;5051841;28;20394;-84
2022/05/30 03:35:46;;;;;;;6.50;2.40;;;11.00;39.60;;;;;;5053763;28;20374;-84
2022/05/30 03:38:12;;;;;;;11.80;2.80;;;11.00;39.60;;;;;;5055175;28;20386;-84
2022/05/30 03:40:39;;;;;;;7.18;2.30;;;10.90;40.70;;;;;;5056781;28;20383;-85
2022/05/30 03:43:07;;;;;;;9.30;2.90;;;11.00;39.80;;;;;;5053897;28;20391;-83
2022/05/30 03:45:34;;;;;;;14.35;2.50;;;11.00;40.10;;;;;;5053713;28;21207;-82
2022/05/30 03:48:00;;;;;;;7.20;2.40;;;11.00;39.40;;;;;;5052790;28;20396;-81
2022/05/30 03:50:26;;;;;;;10.57;2.80;;;11.00;39.90;;;;;;5050587;28;20395;-81
2022/05/30 03:52:52;;;;;;;8.77;2.72;;;11.00;40.20;;;;;;5047685;28;20418;-83
2022/05/30 03:55:20;;;;;;;15.88;3.13;;;10.90;41.60;;;;;;5048153;28;20383;-83
2022/05/30 03:57:46;;;;;;;13.38;2.90;;;11.00;39.60;;;;;;5050761;28;20434;-81
2022/05/30 04:00:19;;;;;;;11.48;2.50;;;10.90;39.70;;;;;;5050680;28;20904;-84
2022/05/30 04:02:47;;;;;;;7.15;2.25;;;11.00;39.70;;;;;;5049757;28;20387;-84
2022/05/30 04:05:14;;;;;;;16.05;3.05;;;11.00;39.10;;;;;;5048175;28;20747;-80
2022/05/30 04:07:40;;;;;;;9.90;2.35;;;10.90;40.60;;;;;;5047776;28;20414;-80
2022/05/30 04:10:06;;;;;;;6.65;2.50;;;10.90;39.70;;;;;;5047615;28;20379;-82
2022/05/30 04:12:32;;;;;;;8.32;3.08;;;11.00;40.10;;;;;;5048914;28;20403;-80
2022/05/30 04:14:59;;;;;;;9.75;3.50;;;11.00;41.90;;;;;;5048230;28;20402;-80
2022/05/30 04:17:26;;;;;;;16.67;3.75;;;11.00;42.90;;;;;;5049334;28;20390;-82
2022/05/30 04:19:52;;;;;;;15.55;3.10;;;11.10;42.90;;;;;;5048859;28;20410;-81
2022/05/30 04:22:18;;;;;;;10.13;2.70;;;11.20;39.70;;;;;;5049331;28;20454;-81
2022/05/30 04:24:45;;;;;;;13.45;2.97;;;11.20;40.50;;;;;;5051488;28;20442;-81
2022/05/30 04:27:11;;;;;;;13.82;3.10;;;11.40;39.90;;;;;;5049980;28;20783;-83
2022/05/30 04:29:37;;;;;;;16.85;3.78;;;11.40;39.50;;;;;;5051561;28;20406;-84
2022/05/30 04:32:04;;;;;;;12.48;2.80;;;11.40;38.30;;;;;;5056622;28;20422;-85
2022/05/30 04:34:30;;;;;;;12.55;2.30;;;11.40;38.70;;;;;;5049271;28;20414;-82
2022/05/30 04:36:56;;;;;;;12.70;3.20;;;11.40;39.00;;;;;;5049020;28;20387;-82
2022/05/30 04:39:22;;;;;;;14.68;2.80;;;11.50;39.50;;;;;;5051349;28;20391;-81
2022/05/30 04:41:47;;;;;;;17.25;3.10;;;11.50;39.40;;;;;;5051133;28;20398;-80
2022/05/30 04:44:13;;;;;;;20.40;3.70;;;11.50;39.70;;;;;;5050074;28;20411;-79
2022/05/30 04:46:39;;;;;;;12.02;3.20;;;11.60;39.40;;;;;;5048743;28;20501;-80
2022/05/30 04:49:04;;;;;;;17.80;4.20;;;11.70;39.80;;;;;;5048348;28;20434;-80
2022/05/30 04:51:30;;;;;;;10.25;3.60;;;11.70;39.40;;;;;;5048791;28;20399;-83
2022/05/30 04:53:56;;;;;;;18.40;3.30;;;11.60;39.70;;;;;;5048880;28;20395;-83
2022/05/30 04:56:22;;;;;;;11.30;3.40;;;11.70;39.10;;;;;;5049738;28;20950;-80
2022/05/30 04:58:49;;;;;;;12.53;3.73;;;11.80;37.50;;;;;;5049851;28;20383;-79
2022/05/30 05:01:16;;;;;;;16.90;3.60;;;11.80;39.00;;;;;;5048440;28;20418;-79
2022/05/30 05:03:43;;;;;;;17.08;3.63;;;11.70;38.40;;;;;;5049382;28;20386;-79
2022/05/30 05:06:12;;;;;;;15.15;3.70;;;11.70;38.40;;;;;;5048495;28;20394;-80
2022/05/30 05:08:59;;;;;;;16.63;3.45;;;11.70;38.40;;;;;;5052180;28;20371;-79
2022/05/30 05:11:28;;;;;;;12.88;3.70;;;11.70;39.00;;;;;;5053691;28;20418;-83
2022/05/30 05:13:55;;;;;;;14.57;3.50;;;11.90;38.10;;;;;;5054892;28;20399;-84
2022/05/30 05:16:32;;;;;;;19.33;3.50;;;12.00;37.00;;;;;;5054851;28;20421;-83
2022/05/30 05:18:58;;;;;;;11.70;3.60;;;12.00;37.20;;;;;;5054351;28;20399;-81
2022/05/30 05:21:27;;;;;;;9.93;3.05;;;12.10;38.50;;;;;;5053238;28;20379;-83
2022/05/30 05:23:53;;;;;;;19.52;3.38;;;12.20;38.10;;;;;;5053073;28;20398;-82
2022/05/30 05:26:20;;;;;;;11.50;3.28;;;12.30;35.20;;;;;;5046751;28;20434;-81
2022/05/30 05:28:46;;;;;;;13.13;3.50;;;12.40;35.10;;;;;;5046748;28;20383;-80
2022/05/30 05:31:19;;;;;;;12.27;2.80;;;12.40;34.90;;;;;;5046208;28;20411;-81
2022/05/30 05:33:45;;;;;;;17.45;3.72;;;12.50;34.40;;;;;;5044938;28;20399;-80
2022/05/30 05:36:10;;;;;;;16.80;3.80;;;12.40;34.50;;;;;;5044656;28;20399;-79
2022/05/30 05:38:36;;;;;;;14.40;3.93;;;12.50;34.50;;;;;;5044028;28;20445;-81
2022/05/30 05:41:06;;;;;;;12.67;4.10;;;12.50;33.60;;;;;;5047959;28;20383;-81
2022/05/30 05:43:32;;;;;;;18.27;4.00;;;12.50;32.40;;;;;;5049243;28;20390;-80
2022/05/30 05:45:57;;;;;;;14.95;4.00;;;12.60;33.60;;;;;;5048275;28;20391;-80
2022/05/30 05:48:23;;;;;;;15.82;3.90;;;12.60;33.10;;;;;;5048859;28;20445;-79
2022/05/30 05:50:49;;;;;;;12.18;3.85;;;12.80;32.20;;;;;;5046933;28;20465;-82
2022/05/30 05:53:15;;;;;;;11.20;4.15;;;12.90;33.00;;;;;;5049812;28;20395;-82
2022/05/30 05:55:41;;;;;;;14.30;5.00;;;13.00;32.70;;;;;;5049142;28;20399;-79
2022/05/30 05:58:07;;;;;;;16.23;4.87;;;13.00;32.80;;;;;;5042191;28;20388;-80
2022/05/30 06:00:33;;;;;;;13.38;4.18;;;13.20;32.80;;;;;;5039886;28;20886;-79
2022/05/30 06:02:59;;;;;;;19.55;4.40;;;13.30;32.40;;;;;;5044263;28;20383;-79
2022/05/30 06:05:25;;;;;;;19.60;4.60;;;13.50;31.20;;;;;;5043072;28;20411;-81
2022/05/30 06:07:51;;;;;;;22.48;5.07;;;13.60;31.60;;;;;;5037153;28;20402;-82
2022/05/30 06:10:17;;;;;;;17.52;4.43;;;13.80;31.50;;;;;;5041102;28;20765;-78
2022/05/30 06:12:45;;;;;;;16.92;4.80;;;14.00;28.80;;;;;;5034389;28;20529;-76
2022/05/30 06:15:17;;;;;;;13.25;3.53;;;14.20;28.40;;;;;;5041544;28;20395;-79
2022/05/30 06:17:45;;;;;;;12.80;3.07;;;14.40;26.80;;;;;;5033773;28;20429;-79
2022/05/30 06:20:13;;;;;;;13.10;3.90;;;14.60;26.40;;;;;;5030466;28;20389;-78
2022/05/30 06:22:39;;;;;;;17.85;4.07;;;14.50;25.90;;;;;;5031366;28;20934;-82
2022/05/30 06:25:05;;;;;;;15.33;3.77;;;14.20;26.30;;;;;;5035000;28;20425;-80
2022/05/30 06:27:31;;;;;;;10.05;3.47;;;14.10;27.60;;;;;;5029778;28;20951;-79
2022/05/30 06:29:57;;;;;;;15.38;3.95;;;14.20;26.90;;;;;;5027935;28;20415;-77
2022/05/30 06:32:23;;;;;;;13.15;3.35;;;14.70;26.10;;;;;;5025927;28;20414;-78
2022/05/30 06:34:48;;;;;;;13.48;3.30;;;14.60;23.70;;;;;;5030059;28;20534;-76
2022/05/30 06:37:14;;;;;;;15.43;3.83;;;14.50;25.00;;;;;;5027530;28;20493;-76
2022/05/30 06:39:40;;;;;;;13.70;3.72;;;14.40;25.40;;;;;;5029424;28;20411;-78
2022/05/30 06:42:09;;;;;;;23.88;3.38;;;14.40;25.90;;;;;;5027494;28;20452;-78
2022/05/30 06:44:36;;;;;;;13.60;2.97;;;14.20;25.30;;;;;;5034794;28;20407;-79
2022/05/30 06:47:03;;;;;;;12.55;3.25;;;14.20;25.90;;;;;;5023581;28;20454;-78
2022/05/30 06:49:29;;;;;;;13.38;2.85;;;14.20;25.20;;;;;;5029330;28;20575;-78
2022/05/30 06:51:54;;;;;;;16.30;3.08;;;14.20;25.80;;;;;;5027165;28;20465;-79
2022/05/30 06:54:20;;;;;;;12.90;3.30;;;13.90;25.30;;;;;;5041769;28;20564;-79
2022/05/30 06:59:31;;;;;;;15.73;3.00;;;13.70;26.40;;;;;;5035135;28;20442;-79
2022/05/30 07:02:00;;;;;;;14.95;3.88;;;13.70;25.90;;;;;;5043167;28;20411;-83
2022/05/30 07:04:28;;;;;;;12.03;3.43;;;13.70;26.80;;;;;;5032054;28;20426;-78
2022/05/30 07:06:54;;;;;;;11.77;3.17;;;13.70;27.10;;;;;;5024159;28;20404;-77
2022/05/30 07:09:20;;;;;;;17.33;3.90;;;13.70;27.40;;;;;;5023632;28;20407;-80
2022/05/30 07:11:46;;;;;;;14.30;4.90;;;13.90;26.50;;;;;;5029024;28;20478;-79
2022/05/30 07:14:12;;;;;;;18.30;3.90;;;14.00;25.60;;;;;;5050684;28;20419;-78
2022/05/30 07:16:40;;;;;;;16.25;4.13;;;14.00;27.20;;;;;;5026745;28;20403;-77
2022/05/30 07:19:09;;;;;;;16.48;4.80;;;14.10;25.60;;;;;;5027812;28;20741;-75
2022/05/30 07:21:35;;;;;;;21.20;4.68;;;14.40;25.90;;;;;;5029112;28;20464;-75
2022/05/30 07:24:01;;;;;;;13.43;4.10;;;14.40;25.00;;;;;;5046701;28;20414;-77
2022/05/30 07:26:28;;;;;;;23.33;4.93;;;14.70;24.30;;;;;;5026491;28;20486;-78
2022/05/30 07:28:54;;;;;;;20.75;5.30;;;15.10;23.30;;;;;;5030001;28;20414;-78
2022/05/30 07:31:22;;;;;;;20.73;6.18;;;15.00;22.20;;;;;;5037110;28;20415;-77
2022/05/30 07:33:48;;;;;;;26.58;6.95;;;14.90;22.60;;;;;;5043230;28;20472;-78
2022/05/30 07:36:21;;;;;;;20.70;7.50;;;15.00;23.40;;;;;;5033624;28;20417;-76
2022/05/30 07:38:48;;;;;;;17.92;6.88;;;15.10;21.20;;;;;;5027061;28;20878;-78
2022/05/30 07:41:13;;;;;;;20.07;7.87;;;14.80;22.90;;;;;;5026522;28;20406;-77
2022/05/30 07:43:39;;;;;;;20.52;7.30;;;14.90;24.40;;;;;;5024285;28;20407;-77
2022/05/30 07:46:07;;;;;;;16.67;7.65;;;15.00;23.20;;;;;;5030635;28;20446;-78
2022/05/30 07:48:33;;;;;;;16.75;7.82;;;15.30;22.50;;;;;;5037886;28;20388;-78
2022/05/30 07:51:00;;;;;;;14.82;6.88;;;15.30;21.60;;;;;;5046977;28;20410;-78
2022/05/30 07:53:26;;;;;;;19.80;7.05;;;15.50;20.90;;;;;;5038635;28;20409;-78
2022/05/30 07:55:52;;;;;;;18.27;8.10;;;16.00;19.70;;;;;;5032532;28;20410;-78
2022/05/30 07:58:18;;;;;;;27.67;13.23;;;16.10;19.20;;;;;;5038204;28;20403;-78
2022/05/30 08:00:43;;;;;;;20.05;9.90;;;16.10;19.10;;;;;;5033740;28;20405;-78
2022/05/30 08:03:14;;;;;;;19.42;8.02;;;15.70;18.80;;;;;;5035241;28;20402;-77
2022/05/30 08:05:43;;;;;;;17.60;8.50;;;15.60;19.70;;;;;;5024976;28;20510;-77
2022/05/30 08:08:09;;;;;;;26.27;11.32;;;15.50;20.50;;;;;;5029678;28;20484;-78
2022/05/30 08:10:34;;;;;;;19.23;10.27;;;15.50;19.90;;;;;;5026324;28;20518;-74
2022/05/30 08:13:00;;;;;;;23.05;10.07;;;15.30;20.50;;;;;;5026396;28;20403;-74
2022/05/30 08:15:26;;;;;;;21.88;10.88;;;15.10;19.90;;;;;;5024868;28;20490;-74
2022/05/30 08:17:56;;;;;;;23.17;9.70;;;14.90;21.00;;;;;;5007072;28;20417;-75
2022/05/30 08:20:23;;;;;;;25.58;10.27;;;15.10;22.40;;;;;;5030567;28;20911;-76
2022/05/30 08:22:48;;;;;;;26.17;10.27;;;15.40;21.30;;;;;;5028029;28;20908;-77
2022/05/30 08:25:17;;;;;;;19.38;10.20;;;15.20;21.60;;;;;;5025828;28;20426;-77
2022/05/30 08:27:43;;;;;;;22.58;11.00;;;14.90;22.50;;;;;;5024388;28;20427;-77
2022/05/30 08:30:11;;;;;;;23.08;10.85;;;14.50;23.80;;;;;;5031845;28;21270;-77
2022/05/30 08:32:41;;;;;;;18.60;9.40;;;14.50;23.20;;;;;;5023604;28;20416;-75
2022/05/30 08:35:09;;;;;;;17.88;9.48;;;14.50;22.30;;;;;;5022466;28;20404;-75
2022/05/30 08:37:37;;;;;;;23.33;7.53;;;14.50;22.60;;;;;;5021595;28;20408;-75
2022/05/30 08:43:03;;;;;;;21.85;9.90;;;14.50;20.40;;;;;;5021794;28;20942;-76
2022/05/30 08:45:29;;;;;;;17.45;9.52;;;14.60;20.40;;;;;;5022893;28;20997;-76
2022/05/30 08:47:57;;;;;;;20.20;8.73;;;14.50;20.20;;;;;;5023957;28;20884;-76
2022/05/30 08:50:35;;;;;;;21.88;10.38;;;14.40;19.80;;;;;;5030276;28;20407;-75
2022/05/30 08:53:19;;;;;;;20.02;12.40;;;14.50;20.40;;;;;;5028199;28;20681;-76
2022/05/30 08:55:54;;;;;;;16.33;9.93;;;15.00;19.30;;;;;;5022473;28;20434;-76
2022/05/30 08:58:50;;;;;;;16.05;10.13;;;15.00;17.70;;;;;;5021946;28;20818;-78
2022/05/30 09:01:31;;;;;;;16.05;10.75;;;15.00;18.00;;;;;;5020902;28;20464;-75
2022/05/30 09:04:11;;;;;;;17.00;10.02;;;15.10;17.60;;;;;;5021650;28;20455;-75
2022/05/30 09:07:04;;;;;;;20.08;9.88;;;15.50;17.60;;;;;;5020114;28;20409;-80
2022/05/30 09:09:51;;;;;;;24.07;10.20;;;15.30;17.10;;;;;;5025926;28;20417;-76
2022/05/30 09:12:52;;;;;;;18.25;9.73;;;15.40;18.10;;;;;;5026138;28;20411;-76
2022/05/30 09:15:26;;;;;;;16.65;8.80;;;15.80;17.70;;;;;;5021802;28;20457;-77
2022/05/30 09:18:00;;;;;;;20.53;9.60;;;16.00;16.00;;;;;;5024575;28;20448;-76
2022/05/30 09:20:28;;;;;;;18.95;9.82;;;16.60;15.90;;;;;;5021448;28;20767;-76
2022/05/30 09:22:54;;;;;;;16.15;7.07;;;17.20;14.30;;;;;;5022790;28;20412;-75
2022/05/30 09:28:17;;;;;;;17.45;9.05;;;18.40;11.40;;;;;;5023623;28;20409;-76
2022/05/30 09:31:00;;;;;;;13.52;6.93;;;18.40;12.10;;;;;;5027569;28;20463;-76
2022/05/30 09:33:40;;;;;;;16.38;6.13;;;18.20;10.30;;;;;;5029544;28;20464;-76
2022/05/30 09:36:25;;;;;;;9.18;4.40;;;17.50;12.30;;;;;;5035865;28;20466;-77
2022/05/30 09:39:00;;;;;;;14.38;5.15;;;16.60;13.10;;;;;;5040862;28;20379;-76
2022/05/30 09:41:46;;;;;;;10.65;4.75;;;16.40;14.30;;;;;;5041815;28;20393;-75
2022/05/30 09:44:18;;;;;;;8.30;3.00;;;16.40;14.80;;;;;;5043454;28;20383;-77
2022/05/30 09:46:53;;;;;;;8.18;2.65;;;15.80;13.70;;;;;;5046189;28;20409;-77
2022/05/30 09:49:25;;;;;;;8.98;2.88;;;16.00;13.70;;;;;;5049105;28;20398;-75
2022/05/30 09:51:56;;;;;;;7.43;2.03;;;16.20;13.50;;;;;;5042674;28;20412;-77
2022/05/30 09:54:24;;;;;;;13.25;2.80;;;16.40;12.70;;;;;;5047178;28;20386;-76
2022/05/30 09:56:54;;;;;;;6.20;2.40;;;16.50;13.10;;;;;;5044951;28;20402;-77
2022/05/30 09:59:34;;;;;;;4.85;2.30;;;16.40;13.80;;;;;;5035050;28;20381;-76
2022/05/30 10:02:01;;;;;;;7.40;2.30;;;16.20;13.40;;;;;;5040465;28;20418;-77
2022/05/30 10:04:41;;;;;;;8.45;2.28;;;16.10;12.50;;;;;;5028273;28;20463;-77
2022/05/30 10:07:16;;;;;;;11.55;2.70;;;16.40;13.10;;;;;;5049312;28;20395;-77
2022/05/30 10:09:54;;;;;;;8.55;2.40;;;16.40;13.50;;;;;;5039787;28;20861;-77
2022/05/30 10:12:40;;;;;;;9.30;2.60;;;16.50;13.20;;;;;;5044649;28;20418;-76
2022/05/30 10:15:26;;;;;;;3.65;1.90;;;16.50;13.10;;;;;;5042015;28;20391;-76
2022/05/30 10:17:54;;;;;;;7.90;1.95;;;16.80;12.40;;;;;;5037595;28;20379;-75
2022/05/30 10:21:05;;;;;;;5.78;1.70;;;16.80;11.60;;;;;;5045704;28;20402;-76
2022/05/30 10:29:54;;;;;;;10.50;2.60;;;16.30;13.00;;;;;;5040046;28;20437;-77
2022/05/30 10:32:29;;;;;;;7.18;2.10;;;16.60;12.70;;;;;;5051159;28;20419;-78
2022/05/30 10:35:10;;;;;;;7.88;2.20;;;17.10;12.20;;;;;;5038026;28;20407;-76
2022/05/30 10:37:44;;;;;;;4.60;1.90;;;17.40;10.10;;;;;;5037327;28;20840;-75
2022/05/30 10:40:22;;;;;;;5.70;2.03;;;17.50;10.30;;;;;;5043021;28;22057;-78
2022/05/30 10:43:16;;;;;;;7.80;2.00;;;17.40;10.30;;;;;;5037448;28;20411;-77
2022/05/30 10:45:55;;;;;;;4.55;2.03;;;17.50;10.80;;;;;;5028479;28;20414;-79
2022/05/30 10:48:27;;;;;;;6.30;2.10;;;17.40;9.60;;;;;;5034931;28;20499;-78
2022/05/30 10:51:00;;;;;;;6.13;2.08;;;17.50;9.90;;;;;;5033627;28;20411;-80
2022/05/30 10:53:53;;;;;;;5.00;2.10;;;17.40;10.70;;;;;;5038586;28;20401;-79
2022/05/30 10:56:32;;;;;;;4.20;1.90;;;17.20;11.30;;;;;;5032214;28;20425;-78
2022/05/30 10:59:32;;;;;;;9.05;1.90;;;17.10;9.70;;;;;;5037636;28;20930;-79
2022/05/30 11:02:10;;;;;;;4.80;2.08;;;16.80;10.10;;;;;;5033212;28;20414;-79
2022/05/30 11:04:50;;;;;;;5.85;1.75;;;16.70;10.10;;;;;;5050022;28;20425;-77
2022/05/30 11:07:48;;;;;;;7.28;1.50;;;16.60;10.50;;;;;;5049326;28;20427;-78
2022/05/30 11:10:53;;;;;;;3.72;1.33;;;16.60;9.30;;;;;;5037981;28;20450;-77
2022/05/30 11:13:39;;;;;;;3.83;1.35;;;16.90;7.50;;;;;;5006683;28;20416;-77
2022/05/30 11:16:27;;;;;;;6.70;1.60;;;16.40;6.90;;;;;;5039445;28;20410;-78
2022/05/30 11:19:00;;;;;;;4.22;1.40;;;16.70;7.60;;;;;;5049535;28;20452;-78
2022/05/30 11:21:37;;;;;;;4.95;1.55;;;17.30;8.40;;;;;;5048563;28;20552;-77
2022/05/30 11:24:05;;;;;;;5.53;1.95;;;18.00;6.70;;;;;;5046664;28;20391;-78
2022/05/30 11:26:47;;;;;;;5.40;1.40;;;18.40;5.60;;;;;;5038097;28;20816;-78
2022/05/30 11:29:40;;;;;;;4.63;1.70;;;18.60;5.00;;;;;;5036474;28;20442;-77
2022/05/30 11:32:15;;;;;;;3.05;1.50;;;18.60;6.40;;;;;;5037011;28;20411;-77
2022/05/30 11:35:05;;;;;;;3.53;1.80;;;17.60;9.60;;;;;;5035524;28;20835;-77
2022/05/30 11:38:07;;;;;;;4.78;1.35;;;16.90;10.40;;;;;;5050476;28;20424;-77
2022/05/30 11:40:56;;;;;;;8.30;1.98;;;16.60;10.40;;;;;;5031535;28;20418;-75
2022/05/30 11:43:58;;;;;;;9.50;2.03;;;16.80;11.60;;;;;;5029357;28;20390;-77
2022/05/30 11:46:36;;;;;;;10.02;2.80;;;16.90;11.70;;;;;;5025526;28;20465;-77
2022/05/30 11:49:43;;;;;;;5.25;1.67;;;17.20;10.70;;;;;;5029248;28;20402;-75
2022/05/30 11:52:25;;;;;;;10.40;1.70;;;17.60;10.40;;;;;;5030042;28;20434;-77
2022/05/30 11:55:05;;;;;;;3.75;1.60;;;17.30;9.40;;;;;;5024455;28;20462;-76
2022/05/30 11:57:57;;;;;;;6.10;1.77;;;16.90;10.00;;;;;;5019783;28;20418;-76
2022/05/30 12:00:30;;;;;;;5.55;1.60;;;17.10;10.20;;;;;;5019796;28;20518;-76
2022/05/30 12:03:34;;;;;;;6.63;1.90;;;17.50;9.60;;;;;;5030829;28;20387;-77
2022/05/30 12:06:18;;;;;;;3.30;1.80;;;17.30;9.80;;;;;;5023752;28;20423;-76
2022/05/30 12:09:22;;;;;;;4.53;1.60;;;17.50;10.40;;;;;;5046838;28;20395;-76
2022/05/30 12:12:26;;;;;;;7.00;1.70;;;17.50;10.20;;;;;;5037892;28;20487;-77
2022/05/30 12:15:06;;;;;;;6.32;1.70;;;17.60;10.30;;;;;;5027550;28;20413;-76
2022/05/30 12:24:12;;;;;;;5.70;1.60;;;18.10;9.70;;;;;;5034042;28;20440;-77
2022/05/30 12:26:53;;;;;;;4.55;1.60;;;17.70;8.50;;;;;;5036004;28;20399;-76
2022/05/30 12:29:37;;;;;;;6.50;1.70;;;17.90;9.00;;;;;;5033510;28;20780;-76
2022/05/30 12:32:17;;;;;;;3.72;1.42;;;18.10;8.70;;;;;;5032450;28;20410;-76
2022/05/30 12:35:00;;;;;;;5.13;1.40;;;18.60;7.50;;;;;;5033803;28;20388;-76
2022/05/30 12:37:44;;;;;;;4.38;1.70;;;18.70;7.40;;;;;;5013389;28;20387;-76
2022/05/30 12:40:32;;;;;;;6.57;1.80;;;19.50;7.30;;;;;;5022157;28;20916;-75
2022/05/30 12:43:08;;;;;;;3.73;1.57;;;19.90;6.00;;;;;;5015155;28;20384;-82
2022/05/30 12:45:42;;;;;;;8.40;2.30;;;19.80;6.30;;;;;;5019292;28;20778;-76
2022/05/30 12:48:32;;;;;;;3.60;1.67;;;20.30;5.20;;;;;;5031080;28;20407;-75
2022/05/30 12:51:18;;;;;;;8.20;1.90;;;20.00;5.10;;;;;;5029864;28;20497;-77
2022/05/30 12:53:59;;;;;;;4.63;1.70;;;20.10;5.10;;;;;;5034512;28;20376;-76
2022/05/30 12:56:37;;;;;;;8.17;2.20;;;20.50;4.10;;;;;;5026770;28;20913;-77
2022/05/30 12:59:02;;;;;;;7.05;2.13;;;19.90;4.30;;;;;;5022586;28;20382;-77
2022/05/30 13:02:17;;;;;;;8.90;2.23;;;19.90;4.80;;;;;;5034417;28;20387;-76
2022/05/30 13:04:52;;;;;;;6.30;1.70;;;20.00;4.90;;;;;;5013164;28;20912;-77
2022/05/30 13:07:17;;;;;;;4.85;1.60;;;19.90;4.60;;;;;;5031961;28;20407;-77
2022/05/30 13:09:45;;;;;;;7.87;1.80;;;20.00;5.20;;;;;;5027594;28;20403;-76
2022/05/30 13:12:11;;;;;;;6.03;1.80;;;20.10;4.20;;;;;;5032458;28;20414;-77
2022/05/30 13:14:36;;;;;;;7.53;1.70;;;20.20;4.10;;;;;;5035339;28;20387;-75
2022/05/30 13:17:14;;;;;;;5.70;2.10;;;20.20;3.80;;;;;;5032717;28;20403;-76
2022/05/30 13:19:45;;;;;;;5.93;1.80;;;20.50;4.50;;;;;;5026398;28;20814;-77
2022/05/30 13:22:12;;;;;;;6.70;1.90;;;20.70;4.00;;;;;;5029278;28;20398;-78
2022/05/30 13:24:39;;;;;;;4.55;1.77;;;21.20;2.60;;;;;;5033385;28;20776;-78
2022/05/30 13:27:05;;;;;;;4.05;1.70;;;21.70;2.10;;;;;;5033646;28;20545;-76
2022/05/30 13:29:33;;;;;;;4.67;1.63;;;21.90;1.00;;;;;;5018584;28;20880;-76
2022/05/30 13:32:00;;;;;;;5.85;1.70;;;21.30;1.00;;;;;;5019556;28;20492;-77
2022/05/30 13:34:31;;;;;;;5.43;1.50;;;20.90;1.00;;;;;;5025431;28;20406;-78
2022/05/30 13:36:59;;;;;;;5.70;1.85;;;21.80;1.00;;;;;;5019341;28;20388;-76
2022/05/30 13:39:24;;;;;;;5.20;1.90;;;21.60;1.00;;;;;;5031967;28;20411;-76
2022/05/30 13:41:50;;;;;;;3.97;1.63;;;22.20;1.00;;;;;;5026914;28;20869;-77
2022/05/30 13:44:20;;;;;;;4.65;1.50;;;22.50;1.00;;;;;;5030203;28;20760;-76
2022/05/30 13:46:52;;;;;;;3.65;1.40;;;22.50;1.00;;;;;;5027195;28;20474;-77